Time;durP1;ratioP1;P1;durP2;ratioP2;P2;SDS_P1;SDS_P2;PMS_P1;PMS_P2;Temp;Humidity;BMP_temperature;BMP_pressure;BME280_temperature;BME280_humidity;BME280_pressure;Samples;Min_cycle;Max_cycle;Signal;HPM_P1;HPM_P2
2022/12/31 00:01:04;;;;;;;2.60;1.20;;;12.90;99.90;;;;;;5038493;28;20441;-82
2022/12/31 00:03:31;;;;;;;1.87;0.90;;;12.90;99.90;;;;;;5038439;28;20459;-82
2022/12/31 00:05:58;;;;;;;1.80;1.10;;;12.90;99.90;;;;;;5038351;28;20489;-84
2022/12/31 00:08:25;;;;;;;2.33;1.20;;;13.00;99.90;;;;;;5060718;23;20831;-85
2022/12/31 00:10:52;;;;;;;2.00;0.87;;;13.00;99.90;;;;;;5056818;28;20451;-85
2022/12/31 00:13:18;;;;;;;1.80;1.00;;;13.00;99.90;;;;;;5057724;28;20480;-83
2022/12/31 00:15:45;;;;;;;2.33;0.80;;;13.10;99.90;;;;;;5056561;28;20454;-82
2022/12/31 00:18:13;;;;;;;1.80;0.90;;;13.20;99.90;;;;;;5056529;28;20504;-84
2022/12/31 00:20:41;;;;;;;2.00;1.00;;;13.10;99.90;;;;;;5057275;28;20456;-85
2022/12/31 00:23:09;;;;;;;1.83;0.83;;;13.10;99.90;;;;;;5061036;28;20458;-85
2022/12/31 00:25:36;;;;;;;2.10;1.23;;;13.10;99.90;;;;;;5060548;28;20459;-84
2022/12/31 00:28:03;;;;;;;1.80;1.03;;;13.10;99.90;;;;;;5063388;28;20761;-84
2022/12/31 00:30:30;;;;;;;2.70;1.20;;;13.10;99.90;;;;;;5061391;28;20452;-86
2022/12/31 00:32:57;;;;;;;2.63;0.90;;;13.10;99.90;;;;;;5041160;28;20571;-85
2022/12/31 00:35:25;;;;;;;2.63;1.00;;;13.10;99.90;;;;;;5018208;28;20461;-84
2022/12/31 00:37:54;;;;;;;2.33;0.90;;;13.10;99.90;;;;;;5019253;28;20465;-84
2022/12/31 00:40:21;;;;;;;1.50;0.87;;;13.00;99.90;;;;;;5024725;28;20478;-84
2022/12/31 00:42:47;;;;;;;1.70;0.80;;;13.00;99.90;;;;;;5036050;28;20486;-85
2022/12/31 00:45:14;;;;;;;1.90;0.90;;;13.00;99.90;;;;;;5035844;28;20471;-85
2022/12/31 00:47:41;;;;;;;2.17;0.80;;;13.00;99.90;;;;;;5034997;28;20505;-84
2022/12/31 00:50:08;;;;;;;1.70;1.00;;;12.90;99.90;;;;;;5063736;28;20551;-84
2022/12/31 00:52:37;;;;;;;2.33;1.00;;;12.90;99.90;;;;;;5074834;28;20535;-85
2022/12/31 00:55:04;;;;;;;1.80;1.07;;;12.90;99.90;;;;;;5062381;28;20541;-85
2022/12/31 00:57:31;;;;;;;2.30;1.03;;;12.90;99.90;;;;;;5057725;28;20487;-85
2022/12/31 01:00:01;;;;;;;1.60;1.00;;;12.90;99.90;;;;;;5054383;28;20490;-85
2022/12/31 01:02:28;;;;;;;1.87;1.27;;;12.80;99.90;;;;;;5055098;28;20453;-83
2022/12/31 01:04:55;;;;;;;1.80;1.40;;;12.90;99.90;;;;;;5018014;28;21008;-84
2022/12/31 01:07:21;;;;;;;2.10;1.03;;;12.80;99.90;;;;;;5037978;28;20541;-83
2022/12/31 01:09:50;;;;;;;1.50;1.20;;;12.80;99.90;;;;;;5037091;28;20491;-83
2022/12/31 01:12:16;;;;;;;1.83;1.30;;;12.90;99.90;;;;;;5037660;28;20949;-83
2022/12/31 01:14:43;;;;;;;1.80;1.50;;;12.90;99.90;;;;;;5037357;28;20492;-84
2022/12/31 01:17:12;;;;;;;2.00;1.40;;;12.80;99.90;;;;;;5037055;28;20460;-83
2022/12/31 01:19:38;;;;;;;1.40;1.10;;;12.80;99.90;;;;;;5036352;28;20472;-83
2022/12/31 01:22:05;;;;;;;2.10;1.40;;;12.90;99.90;;;;;;5039783;28;20541;-83
2022/12/31 01:24:32;;;;;;;2.30;1.30;;;12.90;99.90;;;;;;5056998;28;20847;-81
2022/12/31 01:27:00;;;;;;;1.70;1.10;;;12.80;99.90;;;;;;5056954;28;20484;-81
2022/12/31 01:29:28;;;;;;;1.90;1.57;;;12.90;99.90;;;;;;5055891;28;20492;-81
2022/12/31 01:31:55;;;;;;;1.47;0.90;;;12.90;99.90;;;;;;5057101;28;20872;-81
2022/12/31 01:34:22;;;;;;;1.50;1.00;;;12.90;99.90;;;;;;5056487;28;21142;-82
2022/12/31 01:36:49;;;;;;;3.73;0.80;;;12.90;99.90;;;;;;5057354;28;20828;-82
2022/12/31 01:39:15;;;;;;;4.90;0.90;;;13.00;99.90;;;;;;5047185;28;20912;-81
2022/12/31 01:41:46;;;;;;;1.40;0.90;;;13.00;99.90;;;;;;5036045;28;20461;-82
2022/12/31 01:44:53;;;;;;;3.13;0.97;;;13.00;99.90;;;;;;5035683;28;20464;-80
2022/12/31 01:47:29;;;;;;;1.47;0.87;;;13.00;99.90;;;;;;5018029;28;20480;-81
2022/12/31 01:49:59;;;;;;;2.73;0.80;;;13.10;99.90;;;;;;5018104;28;20484;-83
2022/12/31 01:52:30;;;;;;;1.90;1.07;;;13.10;99.90;;;;;;5018066;28;20461;-83
2022/12/31 01:55:01;;;;;;;1.40;0.70;;;13.10;99.90;;;;;;5022827;28;20480;-82
2022/12/31 01:57:28;;;;;;;1.60;0.80;;;13.20;99.90;;;;;;5037557;28;20449;-83
2022/12/31 02:00:00;;;;;;;1.50;0.90;;;13.20;99.90;;;;;;5037242;28;20482;-82
2022/12/31 02:02:27;;;;;;;2.10;0.80;;;13.20;99.90;;;;;;5036177;28;21018;-84
2022/12/31 02:04:57;;;;;;;1.50;0.90;;;13.30;99.90;;;;;;5037602;28;20460;-82
2022/12/31 02:07:24;;;;;;;1.40;0.80;;;13.30;99.90;;;;;;5037465;28;20898;-82
2022/12/31 02:09:51;;;;;;;1.30;0.70;;;13.30;99.90;;;;;;5035965;28;21022;-83
2022/12/31 02:12:18;;;;;;;1.73;1.03;;;13.30;99.90;;;;;;5037910;28;20481;-80
2022/12/31 02:14:47;;;;;;;1.30;0.70;;;13.30;99.90;;;;;;5041317;28;20485;-81
2022/12/31 02:17:26;;;;;;;1.60;0.80;;;13.30;99.90;;;;;;5043450;28;20481;-80
2022/12/31 02:20:35;;;;;;;1.40;0.73;;;13.30;99.90;;;;;;5043089;28;20476;-80
2022/12/31 02:23:30;;;;;;;11.57;1.00;;;13.40;99.90;;;;;;5046299;28;20539;-80
2022/12/31 02:26:27;;;;;;;1.40;0.90;;;13.40;99.90;;;;;;5045132;28;20448;-80
2022/12/31 02:29:16;;;;;;;2.20;0.80;;;13.40;99.90;;;;;;5043752;28;20479;-80
2022/12/31 02:31:50;;;;;;;1.30;0.70;;;13.50;99.90;;;;;;5061859;28;20515;-79
2022/12/31 02:34:25;;;;;;;1.60;1.27;;;13.50;99.90;;;;;;5065916;28;20475;-80
2022/12/31 02:36:54;;;;;;;1.30;0.60;;;13.60;99.90;;;;;;5066670;28;20469;-79
2022/12/31 02:39:22;;;;;;;1.30;0.63;;;13.60;99.90;;;;;;5065764;28;20472;-80
2022/12/31 02:41:52;;;;;;;1.30;0.60;;;13.70;99.90;;;;;;5064183;28;20455;-80
2022/12/31 02:44:24;;;;;;;1.40;0.60;;;13.70;99.90;;;;;;5064229;28;20450;-78
2022/12/31 02:47:03;;;;;;;1.40;0.70;;;13.80;99.90;;;;;;5060887;28;20453;-80
2022/12/31 02:49:40;;;;;;;1.67;0.70;;;13.90;99.90;;;;;;5060653;28;20502;-80
2022/12/31 02:52:16;;;;;;;1.63;0.70;;;13.90;99.90;;;;;;5063068;28;20452;-78
2022/12/31 02:54:51;;;;;;;2.23;0.70;;;13.90;99.90;;;;;;5054455;28;21028;-80
2022/12/31 02:57:26;;;;;;;1.43;0.60;;;13.90;99.90;;;;;;5043141;28;20949;-81
2022/12/31 03:02:45;;;;;;;1.30;0.60;;;13.90;99.90;;;;;;5024391;28;20446;-81
2022/12/31 03:05:13;;;;;;;1.83;0.60;;;13.90;99.90;;;;;;5024965;28;20430;-80
2022/12/31 03:07:41;;;;;;;1.30;0.60;;;13.90;99.90;;;;;;5023959;28;20445;-80
2022/12/31 03:10:09;;;;;;;1.83;0.60;;;14.00;99.90;;;;;;5020361;28;20487;-80
2022/12/31 03:12:45;;;;;;;1.40;0.60;;;14.10;99.90;;;;;;5021246;28;20453;-80
2022/12/31 03:15:20;;;;;;;1.50;0.60;;;14.10;99.90;;;;;;5021405;28;20488;-80
2022/12/31 03:17:54;;;;;;;1.30;0.60;;;14.10;99.90;;;;;;5025317;28;20466;-79
2022/12/31 03:23:11;;;;;;;1.33;0.57;;;14.10;99.90;;;;;;5043607;28;20433;-78
2022/12/31 03:25:37;;;;;;;1.60;0.90;;;14.10;99.90;;;;;;5060604;28;20425;-79
2022/12/31 03:28:07;;;;;;;1.37;0.70;;;14.00;99.90;;;;;;5056003;28;20800;-80
2022/12/31 03:30:35;;;;;;;7.37;1.67;;;14.00;99.90;;;;;;5056588;28;20447;-80
2022/12/31 03:33:03;;;;;;;2.23;1.20;;;14.00;99.90;;;;;;5058174;28;20451;-81
2022/12/31 03:35:33;;;;;;;1.70;0.80;;;14.00;99.90;;;;;;5054653;28;20488;-78
2022/12/31 03:38:00;;;;;;;1.30;0.60;;;14.00;99.90;;;;;;5054530;28;20457;-78
2022/12/31 03:40:30;;;;;;;1.87;0.60;;;14.10;99.90;;;;;;5059816;28;20530;-80
2022/12/31 03:42:57;;;;;;;3.00;0.73;;;14.00;99.90;;;;;;5059733;28;20460;-82
2022/12/31 03:45:24;;;;;;;1.40;0.80;;;14.00;99.90;;;;;;5061133;28;20447;-80
2022/12/31 03:47:51;;;;;;;1.50;0.73;;;14.00;99.90;;;;;;5057686;28;21034;-78
2022/12/31 03:50:20;;;;;;;1.30;0.60;;;13.90;99.90;;;;;;5057733;28;20469;-79
2022/12/31 03:52:47;;;;;;;2.63;0.70;;;14.00;99.90;;;;;;5043176;28;20458;-78
2022/12/31 03:55:15;;;;;;;3.00;0.60;;;14.00;99.90;;;;;;5035979;28;21011;-79
2022/12/31 03:57:42;;;;;;;1.30;0.60;;;14.20;99.90;;;;;;5035084;28;20477;-80
2022/12/31 04:00:12;;;;;;;1.60;0.60;;;14.20;99.90;;;;;;5035708;28;20492;-79
2022/12/31 04:02:39;;;;;;;1.50;0.60;;;14.20;99.90;;;;;;5037797;28;20440;-77
2022/12/31 04:05:07;;;;;;;1.50;0.70;;;14.20;99.90;;;;;;5038923;28;20454;-79
2022/12/31 04:07:35;;;;;;;1.40;0.60;;;14.20;99.90;;;;;;5039386;28;20464;-79
2022/12/31 04:10:03;;;;;;;1.60;0.70;;;14.30;99.90;;;;;;5036858;28;20481;-80
2022/12/31 04:12:30;;;;;;;1.40;0.60;;;14.30;99.90;;;;;;5041154;28;20460;-78
2022/12/31 04:14:57;;;;;;;1.73;0.60;;;14.40;99.90;;;;;;5038627;28;20571;-79
2022/12/31 04:17:24;;;;;;;1.30;0.53;;;14.60;99.90;;;;;;5038578;28;20651;-80
2022/12/31 04:19:51;;;;;;;1.57;0.67;;;14.60;99.90;;;;;;5035999;28;20472;-79
2022/12/31 04:22:18;;;;;;;1.40;0.60;;;14.70;99.90;;;;;;5039068;28;20527;-78
2022/12/31 04:24:46;;;;;;;1.50;0.80;;;14.70;99.90;;;;;;5041706;28;20547;-80
2022/12/31 04:27:14;;;;;;;1.90;0.70;;;14.80;99.90;;;;;;5058356;28;20449;-80
2022/12/31 04:29:41;;;;;;;1.40;0.70;;;14.80;99.90;;;;;;5055846;28;20477;-78
2022/12/31 04:32:08;;;;;;;1.40;0.50;;;14.80;99.90;;;;;;5057434;28;20452;-80
2022/12/31 04:34:35;;;;;;;1.43;0.60;;;14.90;99.90;;;;;;5058123;28;20476;-80
2022/12/31 04:37:02;;;;;;;1.60;0.70;;;15.00;99.90;;;;;;5058592;28;20461;-80
2022/12/31 04:39:29;;;;;;;1.30;0.70;;;14.90;99.90;;;;;;5056350;28;20477;-79
2022/12/31 04:41:57;;;;;;;2.13;0.60;;;14.80;99.90;;;;;;5056565;28;20445;-80
2022/12/31 04:44:24;;;;;;;1.30;0.50;;;14.80;99.90;;;;;;5044511;28;20460;-79
2022/12/31 04:46:51;;;;;;;1.30;0.50;;;14.70;99.90;;;;;;5044077;28;20451;-79
2022/12/31 04:49:18;;;;;;;2.60;0.60;;;14.70;99.90;;;;;;5042055;28;21041;-79
2022/12/31 04:51:45;;;;;;;1.70;0.53;;;14.70;99.90;;;;;;5043932;28;20547;-80
2022/12/31 04:54:11;;;;;;;1.30;0.50;;;14.80;99.90;;;;;;5046208;28;20563;-80
2022/12/31 04:56:38;;;;;;;6.63;0.60;;;14.90;99.90;;;;;;5044019;28;20451;-81
2022/12/31 04:59:07;;;;;;;2.47;0.60;;;14.90;99.90;;;;;;5043668;28;20480;-79
2022/12/31 05:01:35;;;;;;;1.77;0.70;;;15.10;99.90;;;;;;5044056;28;20463;-80
2022/12/31 05:04:02;;;;;;;3.63;0.60;;;15.20;99.90;;;;;;5043240;28;20883;-80
2022/12/31 05:06:29;;;;;;;1.50;0.70;;;15.30;99.90;;;;;;5043259;28;20455;-80
2022/12/31 05:08:56;;;;;;;3.00;0.60;;;15.30;99.90;;;;;;5040878;28;20481;-80
2022/12/31 05:11:22;;;;;;;1.87;0.60;;;15.40;99.90;;;;;;5044420;28;20556;-80
2022/12/31 05:13:49;;;;;;;2.90;0.60;;;15.50;99.90;;;;;;5043478;28;20465;-80
2022/12/31 05:16:17;;;;;;;1.90;0.70;;;15.50;99.90;;;;;;5042243;28;20484;-80
2022/12/31 05:18:44;;;;;;;2.17;0.70;;;15.60;99.90;;;;;;5040707;28;20476;-80
2022/12/31 05:21:18;;;;;;;1.43;0.67;;;15.60;99.90;;;;;;5041759;28;20815;-79
2022/12/31 05:23:45;;;;;;;1.80;0.60;;;15.70;99.90;;;;;;5041973;28;20446;-80
2022/12/31 05:26:11;;;;;;;2.37;0.70;;;15.70;99.90;;;;;;5050578;28;20530;-79
2022/12/31 05:28:38;;;;;;;1.80;0.80;;;15.80;99.90;;;;;;5060948;28;20477;-80
2022/12/31 05:31:05;;;;;;;3.20;0.80;;;15.80;99.90;;;;;;5061253;28;20538;-79
2022/12/31 05:33:33;;;;;;;2.10;1.10;;;15.80;99.90;;;;;;5062447;28;20908;-79
2022/12/31 05:36:00;;;;;;;1.90;0.70;;;15.90;99.90;;;;;;5064086;28;20489;-80
2022/12/31 05:38:27;;;;;;;4.13;0.80;;;15.90;99.90;;;;;;5061273;28;20469;-80
2022/12/31 05:41:00;;;;;;;2.97;0.60;;;16.00;99.90;;;;;;5048544;28;20456;-78
2022/12/31 05:43:26;;;;;;;1.47;0.60;;;15.90;99.90;;;;;;5060731;28;20505;-80
2022/12/31 05:45:53;;;;;;;2.33;0.70;;;16.00;99.90;;;;;;5061411;28;20444;-78
2022/12/31 05:48:20;;;;;;;2.27;0.57;;;16.00;99.90;;;;;;5059679;28;20522;-79
2022/12/31 05:50:48;;;;;;;2.53;0.70;;;16.10;99.90;;;;;;5061124;28;20461;-80
2022/12/31 05:53:15;;;;;;;2.80;0.80;;;16.10;99.90;;;;;;5058104;28;20494;-81
2022/12/31 05:55:42;;;;;;;2.03;0.60;;;16.10;99.90;;;;;;5062310;28;20492;-80
2022/12/31 05:58:09;;;;;;;1.70;0.70;;;16.20;99.90;;;;;;5065054;28;20525;-82
2022/12/31 06:00:35;;;;;;;1.50;0.60;;;16.20;99.90;;;;;;5064431;28;20443;-84
2022/12/31 06:03:02;;;;;;;1.43;0.67;;;16.20;99.90;;;;;;5065029;28;20458;-81
2022/12/31 06:05:29;;;;;;;1.53;0.67;;;16.20;99.90;;;;;;5065662;28;20783;-81
2022/12/31 06:07:57;;;;;;;2.47;0.90;;;16.20;99.90;;;;;;5068680;28;20524;-81
2022/12/31 06:10:24;;;;;;;1.50;0.57;;;16.30;99.90;;;;;;5064308;28;20484;-82
2022/12/31 06:12:51;;;;;;;4.60;0.70;;;16.20;99.90;;;;;;5053291;28;20480;-80
2022/12/31 06:15:18;;;;;;;2.30;0.77;;;16.20;99.90;;;;;;5039551;28;20484;-81
2022/12/31 06:17:44;;;;;;;1.43;0.60;;;16.20;99.90;;;;;;5038435;28;20455;-81
2022/12/31 06:20:11;;;;;;;2.33;0.80;;;16.20;99.90;;;;;;5043069;28;21079;-82
2022/12/31 06:22:38;;;;;;;3.30;0.60;;;16.20;99.90;;;;;;5044341;28;20455;-81
2022/12/31 06:25:07;;;;;;;2.90;0.70;;;16.20;99.90;;;;;;5046174;28;20529;-80
2022/12/31 06:27:34;;;;;;;1.90;0.70;;;16.20;99.90;;;;;;5030534;28;20944;-80
2022/12/31 06:30:01;;;;;;;2.37;0.80;;;16.30;99.90;;;;;;5040066;28;20478;-81
2022/12/31 06:32:28;;;;;;;2.30;0.77;;;16.30;99.90;;;;;;5065548;28;20475;-81
2022/12/31 06:34:54;;;;;;;2.00;0.80;;;16.30;99.90;;;;;;5066835;28;20581;-79
2022/12/31 06:37:21;;;;;;;1.53;0.80;;;16.30;99.90;;;;;;5065957;28;20452;-80
2022/12/31 06:39:48;;;;;;;4.27;1.20;;;16.30;99.90;;;;;;5065153;28;20544;-81
2022/12/31 06:42:16;;;;;;;1.80;0.60;;;16.30;99.90;;;;;;5067957;28;20540;-81
2022/12/31 06:44:43;;;;;;;4.07;1.13;;;16.40;99.90;;;;;;5067789;28;20518;-81
2022/12/31 06:47:10;;;;;;;1.70;0.73;;;16.30;99.90;;;;;;5055211;28;20471;-81
2022/12/31 06:49:39;;;;;;;2.83;0.90;;;16.30;99.90;;;;;;5044684;28;20472;-81
2022/12/31 06:52:06;;;;;;;2.63;0.80;;;16.30;99.90;;;;;;5047980;28;20456;-80
2022/12/31 06:54:33;;;;;;;2.30;0.73;;;16.40;99.90;;;;;;5048063;28;20455;-82
2022/12/31 06:57:00;;;;;;;5.30;0.80;;;16.30;99.90;;;;;;5048660;28;20523;-82
2022/12/31 06:59:29;;;;;;;2.37;0.60;;;16.40;99.90;;;;;;5047015;28;20475;-81
2022/12/31 07:02:17;;;;;;;2.67;0.87;;;16.30;99.90;;;;;;5048568;28;20452;-79
2022/12/31 07:05:14;;;;;;;2.30;0.77;;;16.40;99.90;;;;;;5068358;28;20504;-79
2022/12/31 07:07:54;;;;;;;4.73;0.87;;;16.30;99.90;;;;;;5068082;28;20456;-78
2022/12/31 07:10:32;;;;;;;1.57;0.77;;;16.30;99.90;;;;;;5067855;28;20478;-81
2022/12/31 07:13:10;;;;;;;3.20;0.73;;;16.30;99.90;;;;;;5068291;28;20456;-81
2022/12/31 07:15:51;;;;;;;1.77;0.63;;;16.30;99.90;;;;;;5067282;28;20475;-82
2022/12/31 07:18:26;;;;;;;3.07;0.73;;;16.40;99.90;;;;;;5067801;28;20523;-79
2022/12/31 07:20:54;;;;;;;1.70;0.70;;;16.40;99.90;;;;;;5067005;28;20531;-81
2022/12/31 07:23:21;;;;;;;3.00;1.23;;;16.40;99.90;;;;;;5068674;28;20476;-81
2022/12/31 07:25:55;;;;;;;1.40;0.67;;;16.40;99.90;;;;;;5065734;28;20934;-80
2022/12/31 07:28:36;;;;;;;1.40;0.50;;;16.40;99.90;;;;;;5056651;28;20501;-80
2022/12/31 07:31:12;;;;;;;2.30;1.00;;;16.50;99.90;;;;;;5049177;28;20553;-80
2022/12/31 07:33:50;;;;;;;2.80;0.70;;;16.50;99.90;;;;;;5050105;28;20455;-81
2022/12/31 07:36:31;;;;;;;2.03;0.87;;;16.50;99.90;;;;;;5049794;28;20555;-79
2022/12/31 07:39:05;;;;;;;3.63;0.80;;;16.50;99.90;;;;;;5049199;28;20475;-80
2022/12/31 07:41:49;;;;;;;2.37;0.83;;;16.50;99.90;;;;;;5046610;28;20442;-80
2022/12/31 07:44:37;;;;;;;2.37;0.87;;;16.50;99.90;;;;;;5047718;28;20443;-82
2022/12/31 07:47:19;;;;;;;4.53;0.80;;;16.50;99.90;;;;;;5060851;28;20467;-81
2022/12/31 07:49:46;;;;;;;2.00;0.80;;;16.50;99.90;;;;;;5067114;28;20468;-81
2022/12/31 07:52:13;;;;;;;2.10;0.77;;;16.50;99.90;;;;;;5065290;28;20455;-81
2022/12/31 07:54:40;;;;;;;2.93;1.00;;;16.50;99.90;;;;;;5066768;28;20495;-81
2022/12/31 07:57:08;;;;;;;2.47;1.03;;;16.60;99.90;;;;;;5066863;28;20556;-80
2022/12/31 07:59:48;;;;;;;2.60;0.80;;;16.60;99.90;;;;;;5067432;28;20470;-81
2022/12/31 08:02:24;;;;;;;1.93;0.63;;;16.60;99.90;;;;;;5062219;28;20494;-81
2022/12/31 08:05:02;;;;;;;2.20;0.90;;;16.60;99.90;;;;;;5054463;28;20980;-82
2022/12/31 08:07:37;;;;;;;2.63;0.70;;;16.60;99.90;;;;;;5064917;28;20505;-80
2022/12/31 08:10:11;;;;;;;2.50;0.87;;;16.60;99.90;;;;;;5046258;28;20508;-82
2022/12/31 08:12:40;;;;;;;3.90;0.90;;;16.70;99.90;;;;;;5044879;28;20491;-81
2022/12/31 08:15:17;;;;;;;4.57;0.90;;;16.70;99.90;;;;;;5054185;28;20442;-80
2022/12/31 08:17:46;;;;;;;3.30;0.93;;;16.70;99.90;;;;;;5065029;28;20499;-81
2022/12/31 08:20:15;;;;;;;2.73;0.87;;;16.70;99.90;;;;;;5066361;28;20474;-79
2022/12/31 08:23:18;;;;;;;1.90;0.93;;;16.70;99.90;;;;;;5066424;28;20451;-79
2022/12/31 08:25:58;;;;;;;3.97;1.00;;;16.80;99.90;;;;;;5049652;28;20647;-82
2022/12/31 08:28:43;;;;;;;2.30;0.90;;;16.80;99.90;;;;;;5066062;28;20871;-80
2022/12/31 08:31:16;;;;;;;2.07;0.80;;;16.80;99.90;;;;;;5067927;28;20508;-80
2022/12/31 08:33:50;;;;;;;1.70;0.80;;;16.80;99.90;;;;;;5045278;28;20456;-80
2022/12/31 08:36:23;;;;;;;2.37;0.93;;;16.80;99.90;;;;;;5046700;28;20484;-81
2022/12/31 08:38:56;;;;;;;4.63;0.90;;;16.80;99.90;;;;;;5044853;28;20469;-82
2022/12/31 08:41:28;;;;;;;2.47;0.87;;;16.90;99.90;;;;;;5046351;28;20433;-81
2022/12/31 08:44:04;;;;;;;2.70;0.70;;;16.90;99.90;;;;;;5043633;28;20456;-82
2022/12/31 08:46:36;;;;;;;8.83;1.27;;;17.00;99.90;;;;;;5046462;28;20527;-81
2022/12/31 08:49:05;;;;;;;3.63;1.00;;;17.00;99.90;;;;;;5045788;28;20479;-83
2022/12/31 08:51:32;;;;;;;2.00;0.90;;;17.00;99.90;;;;;;5043178;28;20524;-81
2022/12/31 08:53:59;;;;;;;3.67;1.00;;;17.00;99.90;;;;;;5042892;28;20449;-79
2022/12/31 08:56:31;;;;;;;3.60;0.93;;;17.10;99.90;;;;;;5043561;28;21023;-80
2022/12/31 08:59:12;;;;;;;3.63;1.20;;;17.10;99.90;;;;;;5041715;28;20484;-81
2022/12/31 09:01:50;;;;;;;3.23;0.70;;;17.10;99.90;;;;;;5043452;28;20436;-80
2022/12/31 09:04:25;;;;;;;3.97;1.00;;;17.10;99.90;;;;;;5045540;28;20525;-81
2022/12/31 09:06:58;;;;;;;2.93;0.70;;;17.00;99.90;;;;;;5025912;28;20774;-80
2022/12/31 09:09:37;;;;;;;1.67;0.63;;;17.10;99.90;;;;;;5022993;28;20572;-80
2022/12/31 09:12:10;;;;;;;2.53;0.90;;;17.10;99.90;;;;;;5021709;28;20461;-80
2022/12/31 09:14:43;;;;;;;1.50;0.67;;;17.10;99.90;;;;;;5025370;28;20440;-80
2022/12/31 09:17:31;;;;;;;1.90;0.90;;;17.10;99.90;;;;;;5024650;28;21018;-82
2022/12/31 09:20:00;;;;;;;3.10;1.00;;;17.10;99.90;;;;;;5023179;28;20469;-81
2022/12/31 09:22:27;;;;;;;1.53;0.70;;;17.20;99.90;;;;;;5042485;28;20457;-82
2022/12/31 09:24:54;;;;;;;4.10;1.00;;;17.20;99.90;;;;;;5043956;28;20482;-79
2022/12/31 09:27:28;;;;;;;2.70;0.90;;;17.20;99.90;;;;;;5045506;28;20450;-84
2022/12/31 09:30:00;;;;;;;3.30;0.80;;;17.20;99.90;;;;;;5047538;28;20491;-82
2022/12/31 09:32:37;;;;;;;2.33;0.87;;;17.10;99.90;;;;;;5048727;28;20449;-81
2022/12/31 09:35:12;;;;;;;2.77;1.00;;;17.10;99.90;;;;;;5046609;28;20935;-81
2022/12/31 09:37:46;;;;;;;2.53;1.10;;;17.20;99.90;;;;;;5054003;28;20856;-82
2022/12/31 09:40:42;;;;;;;2.37;0.97;;;17.20;99.90;;;;;;5069395;28;20471;-82
2022/12/31 09:43:43;;;;;;;2.47;0.80;;;17.20;99.90;;;;;;5068973;28;20449;-81
2022/12/31 09:46:35;;;;;;;3.73;1.10;;;17.20;99.90;;;;;;5068436;28;20478;-81
2022/12/31 09:49:33;;;;;;;2.13;0.90;;;17.10;99.90;;;;;;5065685;28;20562;-81
2022/12/31 09:52:13;;;;;;;2.60;0.90;;;17.20;99.90;;;;;;5061946;28;20459;-81
2022/12/31 09:54:50;;;;;;;2.00;0.90;;;17.10;99.90;;;;;;5056784;28;20457;-81
2022/12/31 09:57:30;;;;;;;2.80;1.10;;;17.10;99.90;;;;;;5052399;28;20467;-81
2022/12/31 10:00:03;;;;;;;2.53;0.90;;;17.20;99.90;;;;;;5065183;28;20527;-80
2022/12/31 10:02:49;;;;;;;2.43;0.90;;;17.10;99.90;;;;;;5062614;28;20750;-80
2022/12/31 10:05:38;;;;;;;2.63;1.13;;;17.10;99.90;;;;;;5066698;28;20514;-81
2022/12/31 10:08:16;;;;;;;3.60;1.20;;;17.20;99.90;;;;;;5067640;28;20452;-82
2022/12/31 10:10:52;;;;;;;2.00;1.00;;;17.20;99.90;;;;;;5063902;28;20972;-81
2022/12/31 10:13:43;;;;;;;2.50;1.17;;;17.20;99.90;;;;;;5047268;28;20954;-81
2022/12/31 10:16:42;;;;;;;1.87;0.90;;;17.20;99.90;;;;;;5044797;28;20489;-81
2022/12/31 10:19:43;;;;;;;6.07;1.37;;;17.20;99.90;;;;;;5046858;28;20467;-81
2022/12/31 10:22:30;;;;;;;2.00;1.10;;;17.20;99.90;;;;;;5047911;28;20450;-80
2022/12/31 10:25:34;;;;;;;3.70;1.10;;;17.30;99.90;;;;;;5046948;28;20432;-81
2022/12/31 10:28:12;;;;;;;1.93;0.73;;;17.30;99.90;;;;;;5047721;28;20448;-80
2022/12/31 10:30:44;;;;;;;2.10;0.87;;;17.30;99.90;;;;;;5047144;28;20451;-81
2022/12/31 10:33:17;;;;;;;5.13;2.13;;;17.30;99.90;;;;;;5046240;28;20489;-81
2022/12/31 10:35:53;;;;;;;4.13;1.00;;;17.40;99.90;;;;;;5045641;28;20440;-81
2022/12/31 10:38:33;;;;;;;1.70;0.80;;;17.50;99.90;;;;;;5046631;28;20434;-80
2022/12/31 10:41:39;;;;;;;2.33;0.80;;;17.60;99.90;;;;;;5049173;28;20450;-80
2022/12/31 10:44:58;;;;;;;3.87;1.00;;;17.70;99.90;;;;;;5052385;28;20456;-80
2022/12/31 10:48:01;;;;;;;2.47;0.80;;;17.60;99.90;;;;;;5003701;28;20444;-81
2022/12/31 10:50:48;;;;;;;1.70;0.70;;;17.70;99.90;;;;;;5003253;28;21033;-81
2022/12/31 10:53:45;;;;;;;3.43;1.63;;;17.70;99.90;;;;;;5045207;28;20961;-83
2022/12/31 10:56:47;;;;;;;4.03;1.00;;;17.70;99.90;;;;;;5040091;28;20488;-82
2022/12/31 10:59:58;;;;;;;4.63;1.03;;;17.70;99.90;;;;;;5046791;28;20476;-80
2022/12/31 11:03:06;;;;;;;2.80;1.20;;;17.60;99.90;;;;;;5049111;28;20446;-83
2022/12/31 11:06:02;;;;;;;1.70;0.90;;;17.70;99.90;;;;;;5044630;28;20523;-82
2022/12/31 11:08:53;;;;;;;2.83;1.00;;;17.70;99.90;;;;;;5042494;28;20538;-82
2022/12/31 11:11:31;;;;;;;2.37;0.97;;;17.70;99.90;;;;;;5046447;28;20478;-80
2022/12/31 11:14:28;;;;;;;3.57;1.13;;;17.70;99.90;;;;;;5044479;28;20444;-80
2022/12/31 11:17:14;;;;;;;3.40;1.13;;;17.70;99.90;;;;;;5036268;28;20552;-82
2022/12/31 11:19:51;;;;;;;3.07;1.10;;;17.90;99.90;;;;;;5061987;28;20477;-82
2022/12/31 11:22:33;;;;;;;4.23;0.87;;;18.00;99.90;;;;;;5051006;28;20437;-82
2022/12/31 11:25:16;;;;;;;2.63;1.13;;;18.20;99.90;;;;;;5059679;28;20515;-82
2022/12/31 11:28:04;;;;;;;3.03;1.20;;;18.00;99.90;;;;;;5054480;28;20464;-80
2022/12/31 11:30:44;;;;;;;3.90;1.00;;;17.90;99.90;;;;;;5047984;28;20565;-82
2022/12/31 11:33:25;;;;;;;4.43;0.83;;;18.00;99.90;;;;;;5067161;28;20439;-82
2022/12/31 11:36:12;;;;;;;2.73;1.00;;;18.00;99.90;;;;;;5053410;28;20446;-83
2022/12/31 11:38:45;;;;;;;2.90;0.90;;;18.00;99.90;;;;;;5045990;28;20533;-83
2022/12/31 11:41:19;;;;;;;3.30;1.13;;;17.90;99.90;;;;;;5047017;28;20446;-83
2022/12/31 11:43:55;;;;;;;3.57;1.10;;;17.80;99.90;;;;;;5047328;28;20462;-81
2022/12/31 11:46:42;;;;;;;2.23;0.97;;;17.80;99.90;;;;;;5047014;28;20443;-83
2022/12/31 11:49:41;;;;;;;4.03;0.93;;;17.80;99.90;;;;;;5057012;28;20470;-81
2022/12/31 11:52:46;;;;;;;2.17;0.90;;;17.80;99.90;;;;;;5062999;28;20919;-82
2022/12/31 11:55:30;;;;;;;4.30;0.90;;;17.70;99.90;;;;;;5058261;28;20968;-82
2022/12/31 11:58:02;;;;;;;7.43;2.00;;;17.70;99.90;;;;;;5059411;28;20483;-81
2022/12/31 12:00:32;;;;;;;3.70;1.40;;;17.60;99.90;;;;;;5032640;28;20949;-81
2022/12/31 12:03:01;;;;;;;2.50;1.00;;;17.60;99.90;;;;;;5045207;28;20500;-82
2022/12/31 12:05:28;;;;;;;2.00;0.90;;;17.60;99.90;;;;;;5045805;28;20452;-80
2022/12/31 12:07:56;;;;;;;4.20;1.07;;;17.60;99.90;;;;;;5043671;28;20484;-80
2022/12/31 12:10:25;;;;;;;2.37;1.00;;;17.50;99.90;;;;;;5056169;22;21203;-81
2022/12/31 12:12:53;;;;;;;3.13;1.37;;;17.50;99.90;;;;;;5041433;28;20461;-82
2022/12/31 12:15:23;;;;;;;4.40;1.73;;;17.50;99.90;;;;;;5043181;28;20523;-81
2022/12/31 12:17:54;;;;;;;2.90;1.23;;;17.50;99.90;;;;;;5043041;28;20478;-82
2022/12/31 12:20:27;;;;;;;4.03;1.57;;;17.50;99.90;;;;;;5043641;28;20469;-81
2022/12/31 12:22:57;;;;;;;4.80;0.90;;;17.40;99.90;;;;;;5043027;28;20840;-81
2022/12/31 12:25:37;;;;;;;1.80;0.90;;;17.30;99.90;;;;;;5043782;28;20472;-81
2022/12/31 12:28:19;;;;;;;2.97;0.90;;;17.20;99.90;;;;;;5042403;28;20453;-80
2022/12/31 12:31:18;;;;;;;6.03;1.20;;;16.70;99.90;;;;;;5047379;28;20479;-81
2022/12/31 12:33:57;;;;;;;4.33;1.20;;;16.40;99.90;;;;;;5044278;28;20530;-82
2022/12/31 12:36:24;;;;;;;4.40;1.37;;;16.20;99.90;;;;;;5045257;28;20451;-81
2022/12/31 12:39:03;;;;;;;3.30;1.03;;;16.00;99.90;;;;;;5044742;28;20478;-82
2022/12/31 12:41:30;;;;;;;4.60;1.07;;;16.00;99.90;;;;;;5038699;28;20855;-82
2022/12/31 12:44:06;;;;;;;3.00;1.13;;;15.90;99.90;;;;;;5045931;28;20451;-81
2022/12/31 12:46:35;;;;;;;7.77;1.20;;;15.70;99.90;;;;;;5046277;28;20528;-82
2022/12/31 12:49:03;;;;;;;2.90;1.07;;;15.70;99.90;;;;;;5047536;28;20473;-82
2022/12/31 12:51:43;;;;;;;5.97;1.83;;;15.50;99.90;;;;;;5047597;28;20449;-82
2022/12/31 12:54:24;;;;;;;5.00;1.50;;;15.50;99.90;;;;;;5047831;28;20437;-82
2022/12/31 12:57:01;;;;;;;4.57;1.40;;;15.40;99.90;;;;;;5049577;28;20509;-82
2022/12/31 13:00:03;;;;;;;6.00;1.43;;;15.40;99.90;;;;;;5048904;28;20507;-82
2022/12/31 13:02:58;;;;;;;5.00;1.30;;;15.30;99.90;;;;;;5058331;28;20442;-81
2022/12/31 13:05:37;;;;;;;3.60;1.30;;;15.30;99.90;;;;;;5046575;28;20464;-82
2022/12/31 13:08:22;;;;;;;2.57;1.30;;;15.30;99.90;;;;;;5053959;28;20515;-82
2022/12/31 13:11:02;;;;;;;3.80;1.23;;;15.30;99.90;;;;;;5054669;28;20541;-82
2022/12/31 13:13:40;;;;;;;2.37;1.17;;;15.30;99.90;;;;;;5055041;28;20449;-82
2022/12/31 13:16:15;;;;;;;5.90;2.67;;;15.30;99.90;;;;;;5054690;28;20460;-82
2022/12/31 13:18:51;;;;;;;3.40;1.27;;;15.30;99.90;;;;;;5052353;28;20486;-82
2022/12/31 13:21:35;;;;;;;5.50;2.30;;;15.40;99.90;;;;;;5052293;28;20971;-83
2022/12/31 13:24:07;;;;;;;3.83;1.67;;;15.50;99.90;;;;;;5049979;28;20515;-82
2022/12/31 13:26:38;;;;;;;2.80;1.10;;;15.70;99.90;;;;;;5048808;28;20459;-83
2022/12/31 13:29:08;;;;;;;3.20;1.30;;;15.80;99.90;;;;;;5046905;28;20537;-81